createdAt,value
2019-01-09T00:01:42.897Z,6.77
2019-01-09T00:04:17.876Z,8.23
2019-01-09T00:06:52.737Z,4.63
2019-01-09T00:09:26.965Z,6.30
2019-01-09T00:12:01.760Z,6.67
2019-01-09T00:14:36.543Z,5.27
2019-01-09T00:17:10.540Z,6.37
2019-01-09T00:19:45.133Z,7.07
2019-01-09T00:22:19.664Z,6.03
2019-01-09T00:24:54.726Z,6.43
2019-01-09T00:27:29.069Z,7.80
2019-01-09T00:30:04.419Z,7.87
2019-01-09T00:32:38.909Z,7.20
2019-01-09T00:35:13.408Z,7.00
2019-01-09T00:37:48.519Z,8.07
2019-01-09T00:40:23.313Z,8.03
2019-01-09T00:42:57.459Z,7.77
2019-01-09T00:45:31.864Z,5.57
2019-01-09T00:48:06.931Z,8.53
2019-01-09T00:50:41.384Z,9.17
2019-01-09T00:53:16.162Z,8.03
2019-01-09T00:55:50.889Z,7.97
2019-01-09T00:58:26.036Z,7.50
2019-01-09T01:01:01.056Z,6.43
2019-01-09T01:03:53.175Z,8.37
2019-01-09T01:06:56.365Z,7.03
2019-01-09T01:10:24.273Z,7.93
2019-01-09T01:13:33.802Z,10.43
2019-01-09T01:16:55.415Z,8.53
2019-01-09T01:20:27.562Z,8.87
2019-01-09T01:23:43.538Z,11.33
2019-01-09T01:26:41.771Z,10.70
2019-01-09T01:29:46.009Z,9.33
2019-01-09T01:32:55.450Z,9.23
2019-01-09T01:36:11.431Z,7.47
2019-01-09T01:39:16.266Z,9.60
2019-01-09T01:42:17.970Z,9.07
2019-01-09T01:45:11.967Z,9.80
2019-01-09T01:48:02.539Z,8.93
2019-01-09T01:51:11.852Z,8.63
2019-01-09T01:54:06.845Z,7.03
2019-01-09T01:57:32.975Z,7.73
2019-01-09T02:00:20.130Z,6.27
2019-01-09T02:03:28.819Z,9.37
2019-01-09T02:06:31.722Z,8.35
2019-01-09T02:09:40.866Z,7.23
2019-01-09T02:12:32.055Z,6.37
2019-01-09T02:16:03.255Z,9.03
2019-01-09T02:19:02.852Z,7.83
2019-01-09T02:21:47.191Z,6.03
2019-01-09T02:25:02.093Z,5.57
2019-01-09T02:28:10.234Z,5.73
2019-01-09T02:31:25.011Z,9.90
2019-01-09T02:33:59.686Z,6.30
2019-01-09T02:36:34.348Z,10.70
2019-01-09T02:39:08.985Z,11.77
2019-01-09T02:41:43.210Z,14.67
2019-01-09T02:44:18.151Z,13.37
2019-01-09T02:46:52.509Z,10.37
2019-01-09T02:49:27.191Z,14.67
2019-01-09T02:52:01.660Z,9.50
2019-01-09T02:54:36.072Z,7.35
2019-01-09T02:57:11.105Z,11.50
2019-01-09T02:59:45.307Z,9.80
2019-01-09T03:02:20.010Z,7.67
2019-01-09T03:04:54.847Z,8.75
2019-01-09T03:07:29.225Z,10.33
2019-01-09T03:10:04.084Z,11.17
2019-01-09T03:12:38.228Z,14.13
2019-01-09T03:15:12.796Z,8.17
2019-01-09T03:17:47.547Z,8.83
2019-01-09T03:20:22.017Z,10.38
2019-01-09T03:22:56.888Z,11.33
2019-01-09T03:25:31.153Z,7.97
2019-01-09T03:28:05.719Z,12.70
2019-01-09T03:30:40.731Z,16.13
2019-01-09T03:33:15.719Z,11.40
2019-01-09T03:35:50.483Z,16.37
2019-01-09T03:38:24.957Z,12.67
2019-01-09T03:41:00.501Z,11.12
2019-01-09T03:43:35.474Z,11.15
2019-01-09T03:46:10.706Z,12.53
2019-01-09T03:48:45.991Z,13.10
2019-01-09T03:51:20.491Z,11.12
2019-01-09T03:53:55.289Z,10.47
2019-01-09T03:56:29.980Z,12.68
2019-01-09T03:59:04.635Z,10.47
2019-01-09T04:01:39.178Z,10.03
2019-01-09T04:04:14.400Z,12.00
2019-01-09T04:06:48.934Z,13.23
2019-01-09T04:09:23.319Z,10.20
2019-01-09T04:11:58.383Z,11.47
2019-01-09T04:14:32.689Z,9.95
2019-01-09T04:17:08.098Z,12.35
2019-01-09T04:19:42.296Z,12.07
2019-01-09T04:22:17.336Z,9.73
2019-01-09T04:24:52.108Z,12.98
2019-01-09T04:27:27.306Z,12.33
2019-01-09T04:30:01.571Z,8.75
2019-01-09T04:32:36.515Z,11.90
2019-01-09T04:35:28.672Z,12.05
2019-01-09T04:38:03.300Z,11.65
2019-01-09T04:40:38.214Z,9.65
2019-01-09T04:43:12.759Z,9.08
2019-01-09T04:45:47.589Z,11.43
2019-01-09T04:48:21.433Z,9.68
2019-01-09T04:50:56.680Z,9.55
2019-01-09T04:53:30.975Z,10.00
2019-01-09T04:56:06.338Z,9.03
2019-01-09T04:58:40.619Z,11.30
2019-01-09T05:01:15.479Z,10.05
2019-01-09T05:03:49.920Z,7.90
2019-01-09T05:06:24.751Z,9.45
2019-01-09T05:08:59.388Z,8.80
2019-01-09T05:11:33.614Z,8.13
2019-01-09T05:14:08.627Z,8.28
2019-01-09T05:16:43.416Z,10.90
2019-01-09T05:19:18.125Z,9.30
2019-01-09T05:21:52.891Z,10.05
2019-01-09T05:24:27.919Z,11.03
2019-01-09T05:27:02.306Z,9.18
2019-01-09T05:29:36.372Z,11.05
2019-01-09T05:32:11.077Z,11.03
2019-01-09T05:34:45.985Z,9.63
2019-01-09T05:37:20.481Z,9.73
2019-01-09T05:39:55.699Z,9.15
2019-01-09T05:42:30.339Z,9.60
2019-01-09T05:45:04.908Z,9.80
2019-01-09T05:47:39.771Z,12.43
2019-01-09T05:50:14.654Z,9.73
2019-01-09T05:52:49.493Z,9.75
2019-01-09T05:55:23.917Z,10.35
2019-01-09T05:57:59.000Z,10.05
2019-01-09T06:00:32.969Z,9.48
2019-01-09T06:03:07.978Z,10.08
2019-01-09T06:05:42.361Z,9.43
2019-01-09T06:08:17.119Z,9.35
2019-01-09T06:10:51.964Z,10.20
2019-01-09T06:13:27.692Z,9.50
2019-01-09T06:16:01.758Z,9.80
2019-01-09T06:18:36.477Z,9.90
2019-01-09T06:21:13.118Z,9.98
2019-01-09T06:23:47.881Z,11.83
2019-01-09T06:26:22.160Z,11.73
2019-01-09T06:28:56.378Z,13.25
2019-01-09T06:31:31.152Z,15.13
2019-01-09T06:34:05.426Z,16.77
2019-01-09T06:36:40.206Z,13.00
2019-01-09T06:39:14.903Z,15.28
2019-01-09T06:41:49.923Z,15.30
2019-01-09T06:44:24.397Z,14.30
2019-01-09T06:46:58.453Z,13.15
2019-01-09T06:49:33.119Z,11.50
2019-01-09T06:52:07.371Z,11.03
2019-01-09T06:54:42.459Z,10.38
2019-01-09T06:57:18.601Z,10.35
2019-01-09T06:59:53.456Z,10.38
2019-01-09T07:02:28.019Z,10.80
2019-01-09T07:05:02.940Z,10.80
2019-01-09T07:07:37.805Z,14.00
2019-01-09T07:10:12.479Z,11.50
2019-01-09T07:12:47.548Z,11.27
2019-01-09T07:15:22.484Z,10.18
2019-01-09T07:17:57.277Z,9.38
2019-01-09T07:20:31.843Z,10.58
2019-01-09T07:23:05.996Z,10.70
2019-01-09T07:25:40.673Z,9.77
2019-01-09T07:28:15.054Z,8.73
2019-01-09T07:30:49.976Z,8.73
2019-01-09T07:33:24.451Z,8.30
2019-01-09T07:35:58.620Z,8.37
2019-01-09T07:38:33.791Z,8.00
2019-01-09T07:41:08.332Z,8.30
2019-01-09T07:43:42.713Z,7.78
2019-01-09T07:46:17.354Z,7.77
2019-01-09T07:48:51.030Z,6.73
2019-01-09T07:51:26.152Z,6.53
2019-01-09T07:54:00.463Z,7.17
2019-01-09T07:56:34.838Z,6.03
2019-01-09T07:59:09.352Z,5.83
2019-01-09T08:01:43.732Z,6.40
2019-01-09T08:04:18.692Z,6.27
2019-01-09T08:06:53.205Z,6.53
2019-01-09T08:09:27.962Z,5.37
2019-01-09T08:12:01.865Z,5.30
2019-01-09T08:14:36.314Z,6.07
2019-01-09T08:17:10.844Z,5.73
2019-01-09T08:19:45.733Z,5.47
2019-01-09T08:22:21.763Z,5.60
2019-01-09T08:24:56.065Z,5.93
2019-01-09T08:27:30.448Z,5.33
2019-01-09T08:30:04.898Z,6.33
2019-01-09T08:32:39.307Z,6.67
2019-01-09T08:35:14.214Z,7.00
2019-01-09T08:37:49.220Z,6.60
2019-01-09T08:40:23.780Z,7.10
2019-01-09T08:42:58.981Z,7.17
2019-01-09T08:45:33.261Z,8.47
2019-01-09T08:48:07.881Z,6.37
2019-01-09T08:50:42.880Z,6.40
2019-01-09T08:53:17.224Z,6.07
2019-01-09T08:55:52.998Z,6.00
2019-01-09T08:58:27.244Z,5.63
2019-01-09T09:01:02.382Z,5.67
2019-01-09T09:03:37.440Z,5.77
2019-01-09T09:06:11.795Z,5.67
2019-01-09T09:08:45.730Z,7.07
2019-01-09T09:11:19.982Z,7.80
2019-01-09T09:13:54.678Z,5.73
2019-01-09T09:16:36.388Z,5.43
2019-01-09T09:19:04.158Z,7.10
2019-01-09T09:21:38.613Z,7.47
2019-01-09T09:24:13.291Z,6.67
2019-01-09T09:26:48.869Z,6.60
2019-01-09T09:29:23.183Z,5.40
2019-01-09T09:31:57.610Z,6.10
2019-01-09T09:34:32.412Z,6.13
2019-01-09T09:37:06.744Z,6.17
2019-01-09T09:39:41.271Z,6.70
2019-01-09T09:42:15.884Z,5.43
2019-01-09T09:44:50.294Z,6.23
2019-01-09T09:47:24.920Z,6.23
2019-01-09T09:49:59.607Z,5.53
2019-01-09T09:52:34.300Z,5.37
2019-01-09T09:55:12.782Z,5.93
2019-01-09T09:57:44.260Z,6.37
2019-01-09T10:00:22.045Z,6.23
2019-01-09T10:02:56.546Z,5.87
2019-01-09T10:05:31.514Z,8.90
2019-01-09T10:08:06.602Z,5.70
2019-01-09T10:10:41.269Z,5.77
2019-01-09T10:13:16.054Z,5.70
2019-01-09T10:15:50.069Z,8.10
2019-01-09T10:18:24.926Z,8.07
2019-01-09T10:21:00.133Z,6.73
2019-01-09T10:23:33.978Z,5.53
2019-01-09T10:26:08.899Z,4.87
2019-01-09T10:28:43.348Z,6.70
2019-01-09T10:31:17.856Z,5.20
2019-01-09T10:33:52.672Z,5.97
2019-01-09T10:36:27.798Z,6.00
2019-01-09T10:39:03.028Z,6.27
2019-01-09T10:41:37.853Z,5.87
2019-01-09T10:44:18.904Z,5.27
2019-01-09T10:46:52.487Z,5.33
2019-01-09T10:49:26.919Z,6.17
2019-01-09T10:52:01.561Z,5.50
2019-01-09T10:54:36.134Z,5.83
2019-01-09T10:57:10.082Z,5.20
2019-01-09T10:59:44.811Z,5.60
2019-01-09T11:02:18.825Z,6.00
2019-01-09T11:04:53.552Z,5.63
2019-01-09T11:07:28.264Z,5.73
2019-01-09T11:10:02.765Z,7.20
2019-01-09T11:12:37.121Z,6.43
2019-01-09T11:15:11.842Z,6.27
2019-01-09T11:17:46.296Z,8.13
2019-01-09T11:20:22.590Z,5.97
2019-01-09T11:22:57.143Z,5.90
2019-01-09T11:25:32.291Z,8.40
2019-01-09T11:28:08.172Z,6.03
2019-01-09T11:30:42.573Z,6.97
2019-01-09T11:33:17.370Z,5.57
2019-01-09T11:35:51.937Z,5.87
2019-01-09T11:38:26.162Z,6.27
2019-01-09T11:41:01.541Z,4.90
2019-01-09T11:43:36.500Z,5.87
2019-01-09T11:46:11.245Z,5.27
2019-01-09T11:48:46.052Z,6.17
2019-01-09T11:51:21.015Z,6.37
2019-01-09T11:53:55.048Z,6.10
2019-01-09T11:56:29.670Z,7.00
2019-01-09T11:59:04.377Z,8.80
2019-01-09T12:01:39.219Z,5.77
2019-01-09T12:04:16.039Z,6.83
2019-01-09T12:06:50.634Z,7.30
2019-01-09T12:09:25.972Z,6.57
2019-01-09T12:11:59.812Z,6.70
2019-01-09T12:14:34.248Z,6.93
2019-01-09T12:17:08.675Z,6.77
2019-01-09T12:19:43.377Z,6.83
2019-01-09T12:22:17.151Z,7.27
2019-01-09T12:24:52.431Z,6.80
2019-01-09T12:27:26.951Z,7.17
2019-01-09T12:30:01.510Z,6.73
2019-01-09T12:32:36.002Z,7.20
2019-01-09T12:35:10.683Z,6.80
2019-01-09T12:37:45.315Z,6.50
2019-01-09T12:40:20.086Z,6.47
2019-01-09T12:42:55.288Z,6.03
2019-01-09T12:45:30.036Z,6.97
2019-01-09T12:48:04.777Z,5.97
2019-01-09T12:50:39.402Z,6.43
2019-01-09T12:53:14.090Z,6.70
2019-01-09T12:55:48.835Z,6.40
2019-01-09T12:58:23.976Z,6.33
2019-01-09T13:00:58.668Z,5.97
2019-01-09T13:03:33.576Z,8.43
2019-01-09T13:06:08.060Z,5.97
2019-01-09T13:08:43.281Z,6.30
2019-01-09T13:11:17.828Z,6.07
2019-01-09T13:13:52.546Z,6.17
2019-01-09T13:16:26.865Z,5.87
2019-01-09T13:19:01.589Z,6.57
2019-01-09T13:21:35.795Z,8.47
2019-01-09T13:24:10.609Z,6.67
2019-01-09T13:26:45.106Z,6.27
2019-01-09T13:29:19.716Z,6.33
2019-01-09T13:31:54.037Z,7.00
2019-01-09T13:34:28.818Z,6.13
2019-01-09T13:37:03.062Z,7.07
2019-01-09T13:39:37.645Z,6.23
2019-01-09T13:42:12.870Z,6.87
2019-01-09T13:44:47.268Z,6.97
2019-01-09T13:47:22.331Z,7.03
2019-01-09T13:49:56.022Z,8.57
2019-01-09T13:52:30.681Z,7.40
2019-01-09T13:55:05.766Z,6.57
2019-01-09T13:57:40.424Z,7.97
2019-01-09T14:00:20.039Z,6.23
2019-01-09T14:02:54.304Z,6.90
2019-01-09T14:05:29.165Z,6.57
2019-01-09T14:08:04.476Z,6.67
2019-01-09T14:10:38.845Z,6.20
2019-01-09T14:13:13.393Z,6.27
2019-01-09T14:15:47.919Z,6.90
2019-01-09T14:18:22.978Z,7.07
2019-01-09T14:20:56.891Z,6.17
2019-01-09T14:23:31.298Z,8.13
2019-01-09T14:26:05.788Z,8.83
2019-01-09T14:28:40.785Z,7.53
2019-01-09T14:31:14.852Z,7.20
2019-01-09T14:33:49.651Z,8.20
2019-01-09T14:36:24.219Z,6.97
2019-01-09T14:38:59.117Z,7.20
2019-01-09T14:41:33.539Z,6.83
2019-01-09T14:44:11.351Z,7.23
2019-01-09T14:46:45.730Z,6.93
2019-01-09T14:49:20.645Z,7.27
2019-01-09T14:51:55.160Z,6.67
2019-01-09T14:54:30.293Z,7.13
2019-01-09T14:57:05.106Z,7.17
2019-01-09T14:59:39.392Z,7.00
2019-01-09T15:02:14.446Z,8.33
2019-01-09T15:04:48.931Z,9.28
2019-01-09T15:07:23.486Z,7.20
2019-01-09T15:09:58.890Z,6.47
2019-01-09T15:12:33.507Z,7.57
2019-01-09T15:15:08.019Z,6.73
2019-01-09T15:17:42.634Z,7.37
2019-01-09T15:20:18.777Z,7.53
2019-01-09T15:22:53.398Z,7.53
2019-01-09T15:25:28.484Z,7.87
2019-01-09T15:28:02.856Z,6.93
2019-01-09T15:30:37.857Z,7.40
2019-01-09T15:33:12.378Z,7.07
2019-01-09T15:35:47.342Z,7.65
2019-01-09T15:38:21.195Z,7.13
2019-01-09T15:40:55.991Z,6.70
2019-01-09T15:43:30.500Z,9.60
2019-01-09T15:46:04.885Z,7.43
2019-01-09T15:48:39.699Z,8.17
2019-01-09T15:51:14.018Z,7.35
2019-01-09T15:53:49.680Z,7.67
2019-01-09T15:56:24.763Z,7.10
2019-01-09T15:58:59.238Z,6.33
2019-01-09T16:01:33.624Z,7.90
2019-01-09T16:04:11.329Z,8.97
2019-01-09T16:06:45.955Z,8.03
2019-01-09T16:09:21.059Z,7.60
2019-01-09T16:11:55.757Z,7.93
2019-01-09T16:14:30.311Z,7.12
2019-01-09T16:17:04.689Z,8.80
2019-01-09T16:19:39.364Z,10.28
2019-01-09T16:22:13.915Z,10.07
2019-01-09T16:24:48.169Z,8.73
2019-01-09T16:27:22.721Z,7.67
2019-01-09T16:29:57.353Z,8.50
2019-01-09T16:32:31.981Z,7.92
2019-01-09T16:35:06.995Z,8.63
2019-01-09T16:37:41.286Z,8.33
2019-01-09T16:40:23.326Z,8.40
2019-01-09T16:42:51.680Z,8.23
2019-01-09T16:45:26.847Z,7.07
2019-01-09T16:48:01.195Z,8.37
2019-01-09T16:50:40.274Z,8.08
2019-01-09T16:53:15.217Z,7.13
2019-01-09T16:55:49.332Z,7.43
2019-01-09T16:58:24.788Z,7.25
2019-01-09T17:01:00.019Z,9.30
2019-01-09T17:03:34.546Z,9.30
2019-01-09T17:06:08.974Z,8.50
2019-01-09T17:08:43.528Z,7.57
2019-01-09T17:11:18.117Z,8.80
2019-01-09T17:13:52.651Z,7.43
2019-01-09T17:16:27.169Z,7.42
2019-01-09T17:19:01.977Z,6.67
2019-01-09T17:21:36.545Z,6.72
2019-01-09T17:24:11.113Z,7.03
2019-01-09T17:26:46.349Z,7.67
2019-01-09T17:29:21.010Z,7.83
2019-01-09T17:31:55.425Z,7.53
2019-01-09T17:34:30.045Z,7.63
2019-01-09T17:37:04.480Z,7.60
2019-01-09T17:39:39.054Z,7.13
2019-01-09T17:42:13.559Z,6.95
2019-01-09T17:44:48.382Z,8.18
2019-01-09T17:47:23.098Z,7.30
2019-01-09T17:49:58.072Z,7.37
2019-01-09T17:52:33.466Z,7.07
2019-01-09T17:55:08.014Z,7.33
2019-01-09T17:57:42.454Z,6.90
2019-01-09T18:00:22.557Z,7.60
2019-01-09T18:02:57.158Z,7.90
2019-01-09T18:05:31.523Z,7.97
2019-01-09T18:08:10.950Z,6.83
2019-01-09T18:10:50.057Z,8.63
2019-01-09T18:13:18.970Z,6.57
2019-01-09T18:15:53.669Z,7.07
2019-01-09T18:18:27.966Z,7.80
2019-01-09T18:21:02.745Z,6.63
2019-01-09T18:23:37.764Z,7.73
2019-01-09T18:26:12.959Z,6.30
2019-01-09T18:28:47.578Z,6.67
2019-01-09T18:31:58.219Z,6.80
2019-01-09T18:34:38.277Z,6.30
2019-01-09T18:37:48.443Z,7.13
2019-01-09T18:40:59.275Z,6.33
2019-01-09T18:43:47.381Z,5.80
2019-01-09T18:46:59.466Z,6.20
2019-01-09T18:50:02.606Z,7.00
2019-01-09T18:53:28.953Z,6.50
2019-01-09T18:56:03.641Z,6.63
2019-01-09T18:58:38.328Z,7.00
2019-01-09T19:01:13.107Z,6.93
2019-01-09T19:03:47.548Z,6.10
2019-01-09T19:06:22.196Z,6.17
2019-01-09T19:08:56.803Z,6.40
2019-01-09T19:11:31.351Z,7.57
2019-01-09T19:14:06.020Z,7.10
2019-01-09T19:16:40.549Z,7.90
2019-01-09T19:19:15.532Z,6.55
2019-01-09T19:21:50.279Z,6.87
2019-01-09T19:24:25.037Z,7.33
2019-01-09T19:26:59.497Z,6.23
2019-01-09T19:29:34.555Z,5.50
2019-01-09T19:32:09.141Z,7.33
2019-01-09T19:34:44.020Z,6.93
2019-01-09T19:37:18.575Z,6.37
2019-01-09T19:39:53.466Z,6.17
2019-01-09T19:42:27.755Z,6.60
2019-01-09T19:45:02.848Z,5.97
2019-01-09T19:47:37.705Z,7.30
2019-01-09T19:50:14.013Z,6.07
2019-01-09T19:52:48.431Z,5.62
2019-01-09T19:55:23.337Z,6.33
2019-01-09T19:57:58.134Z,5.83
2019-01-09T20:00:32.587Z,6.22
2019-01-09T20:03:07.297Z,5.87
2019-01-09T20:05:41.933Z,5.97
2019-01-09T20:08:16.266Z,6.50
2019-01-09T20:10:51.254Z,5.50
2019-01-09T20:13:25.932Z,5.53
2019-01-09T20:16:00.771Z,5.47
2019-01-09T20:18:35.479Z,6.13
2019-01-09T20:21:11.268Z,6.00
2019-01-09T20:23:45.625Z,5.80
2019-01-09T20:26:20.660Z,6.10
2019-01-09T20:28:55.988Z,5.43
2019-01-09T20:31:31.712Z,5.67
2019-01-09T20:34:05.911Z,5.47
2019-01-09T20:36:41.046Z,5.57
2019-01-09T20:39:15.743Z,6.03
2019-01-09T20:41:49.580Z,4.87
2019-01-09T20:44:24.810Z,6.00
2019-01-09T20:46:58.944Z,5.57
2019-01-09T20:49:33.689Z,5.62
2019-01-09T20:52:08.477Z,6.07
2019-01-09T20:54:43.571Z,6.50
2019-01-09T20:57:18.463Z,6.50
2019-01-09T20:59:52.967Z,5.53
2019-01-09T21:02:28.120Z,7.53
2019-01-09T21:05:02.901Z,5.20
2019-01-09T21:07:37.549Z,5.63
2019-01-09T21:10:12.981Z,5.93
2019-01-09T21:12:47.399Z,5.23
2019-01-09T21:15:23.344Z,5.30
2019-01-09T21:17:58.475Z,5.40
2019-01-09T21:20:33.049Z,5.67
2019-01-09T21:23:07.133Z,5.07
2019-01-09T21:25:41.787Z,6.37
2019-01-09T21:28:15.983Z,4.73
2019-01-09T21:30:51.448Z,4.83
2019-01-09T21:33:25.807Z,5.10
2019-01-09T21:36:00.713Z,5.97
2019-01-09T21:38:35.359Z,5.00
2019-01-09T21:41:11.871Z,5.10
2019-01-09T21:43:45.910Z,5.13
2019-01-09T21:46:21.770Z,5.50
2019-01-09T21:48:56.548Z,5.13
2019-01-09T21:51:31.081Z,7.70
2019-01-09T21:54:05.633Z,5.97
2019-01-09T21:56:40.256Z,5.13
2019-01-09T21:59:15.551Z,6.40
2019-01-09T22:01:49.896Z,7.63
2019-01-09T22:04:24.648Z,8.47
2019-01-09T22:06:58.922Z,9.30
2019-01-09T22:09:33.712Z,9.10
2019-01-09T22:12:08.451Z,9.77
2019-01-09T22:14:43.648Z,8.50
2019-01-09T22:17:19.061Z,10.47
2019-01-09T22:19:54.000Z,12.93
2019-01-09T22:22:28.338Z,14.07
2019-01-09T22:25:03.547Z,11.75
2019-01-09T22:27:38.168Z,12.53
2019-01-09T22:30:15.944Z,12.87
2019-01-09T22:32:50.523Z,12.47
2019-01-09T22:35:25.332Z,13.37
2019-01-09T22:37:59.395Z,11.87
2019-01-09T22:40:34.383Z,11.75
2019-01-09T22:43:09.006Z,10.83
2019-01-09T22:45:43.526Z,11.77
2019-01-09T22:48:17.815Z,12.73
2019-01-09T22:50:52.664Z,11.47
2019-01-09T22:53:26.960Z,10.67
2019-01-09T22:56:01.363Z,10.97
2019-01-09T22:58:35.703Z,10.67
2019-01-09T23:01:19.672Z,10.17
2019-01-09T23:03:54.571Z,12.40
2019-01-09T23:06:28.792Z,13.13
2019-01-09T23:09:03.829Z,10.17
2019-01-09T23:11:38.184Z,10.00
2019-01-09T23:14:13.955Z,12.37
2019-01-09T23:16:48.631Z,8.03
2019-01-09T23:19:22.899Z,11.77
2019-01-09T23:21:57.355Z,8.70
2019-01-09T23:24:31.685Z,12.80
2019-01-09T23:27:06.182Z,8.90
2019-01-09T23:29:41.732Z,9.30
2019-01-09T23:32:16.120Z,8.80
2019-01-09T23:34:51.002Z,7.30
2019-01-09T23:37:25.598Z,8.43
2019-01-09T23:39:59.765Z,9.37
2019-01-09T23:42:34.877Z,8.40
2019-01-09T23:45:10.120Z,7.37
2019-01-09T23:47:44.667Z,9.97
2019-01-09T23:50:19.533Z,8.70
2019-01-09T23:52:53.572Z,8.13
2019-01-09T23:55:28.681Z,8.33
2019-01-09T23:58:03.338Z,8.93
